جدة, Saudi Arabia

01:54 AM AST on êèنêè 28, 2016 (GMT +0300)
King Abdulaziz International | | Change Station

Elev 49 ft 21.70 °N, 39.18 °E | Updated 54 minutes ago

Clear
صافية
91 °F
Feels Like 94 °F
N
12
ريح متغير ريح from شمال

هذا اليوم
High -- | Low -- °F
--% Chance of Precip.
Yesterday
High -- | Low -- °F
Precip. -- في
الضغط 29.50 في
وضوح الرؤية -9999.0 أميال
سحابات
مؤشر الحرارة 94 °F
نقطة الندى 66 °F
الرطوبة 43%
Rainfall 0.00 في
عمق الثلج Not available.
5:54 AM 7:04 PM
الربع الآخر, 39% visible
METAR OEJN 272200Z 36010KT CAVOK 33/19 Q0999 NOSIG
الضغط 29.50 في
وضوح الرؤية -9999.0 أميال
سحابات
مؤشر الحرارة 94 °F
نقطة الندى 66 °F
الرطوبة 43%
Rainfall 0.00 في
عمق الثلج Not available.
5:54 AM 7:04 PM
الربع الآخر, 39% visible
METAR OEJN 272200Z 36010KT CAVOK 33/19 Q0999 NOSIG

10-Day Weather Forecast

No radar image for this location.
×

Almanac

علم الفلك

Jul. 28, 2016 Rise Set
Actual Time
Civil Twilight
Nautical Twilight
Astronomical Twilight
قمر
Length Of Visible Light
طول الیوم
Tomorrow will be .
, % of the Moon is Illuminated

Today's Extremes

Country Highs Country Lows

Community

WunderPhotos

Upload Photos

1,927,951 photos uploaded!

WunderBlog® & News

Nearby

جودة الهواء

  جودة الهواء AQ Index Pollutant
Not available.

عمق الثلج

Station Depth Elevation

Earthquake Activity

City Distance Mag. Time & Date
Minimum magnitude displayed is 2.5.

Coastal Water Temperatures

مكان درجات الحرارة

Stations

Nearby Weather Stations

Station Location الحرارة رياح باردة نقطة الندى الرطوبة ريح Precip. Elev تحديث Type